首页
METAR-TAF:

METAR-TAF

机场 :

布里斯托機場

布里斯托尔, 英格兰

纬度: 51-23N, 经度: 002-43W, 海拔: 189米

当前天气观测

该预报发布于24分钟前的18:50 UTC
风速6节,风向西南
温度 15°C
湿度 63%
气压 1020 hPa
能见度10公里或以上

METAR: EGGD 211850Z AUTO 23006KT 9999 NCD 15/08 Q1020

时间: 20:14 (19:14 UTC)

预报

该预报发布于2小时和20分钟前的16:54 UTC
预报有效从21日的 18点(UTC)到 22日的 18点(UTC)
风速9节,风向西转西南
能见度10公里或以上
少量云层高于4000英尺

TAF: EGGD 211654Z 2118/2218 25009KT 9999 FEW040

超过4000个机场的气象观测和天气预报(METAR&TAF报告)。

可查询的气象台以黄色和红色小点在地图上表示。

将鼠标移到小点上方,可查看气象台名称。

然后点击查看天气观测和预报。

如需切换地图:点击带黑十字的绿色按钮放大地图;点击带横线的绿色按钮缩小地图;或者点击绿色箭头查看邻近地区的地图。


METAR-TAF: